Aviation Digital Data Service (ADDS)

Output produced by TAFs form (0642 UTC 21 August 2017)
found at http://aviationweather.gov/adds/tafs/
 
KTCC 210534Z 2106/2206 20011KT P6SM VCSH SCT060 BKN100 
     TEMPO 2106/2110 6SM -SHRA SCT030 BKN060 
     FM211000 VRB06KT P6SM VCSH SCT030 BKN060 
     FM211800 20012G22KT P6SM VCSH SCT050 BKN090 
     FM220100 22007KT P6SM SCT100